createdAt,value
2019-02-06T00:01:18.244Z,3.10
2019-02-06T00:03:47.265Z,3.10
2019-02-06T00:06:16.262Z,3.10
2019-02-06T00:08:45.232Z,3.10
2019-02-06T00:11:14.462Z,3.10
2019-02-06T00:13:43.521Z,3.10
2019-02-06T00:16:12.722Z,3.10
2019-02-06T00:18:41.792Z,3.10
2019-02-06T00:21:10.831Z,3.10
2019-02-06T00:23:39.808Z,3.20
2019-02-06T00:26:08.725Z,3.20
2019-02-06T00:28:37.798Z,3.20
2019-02-06T00:31:06.829Z,3.20
2019-02-06T00:33:35.983Z,3.10
2019-02-06T00:36:05.495Z,3.10
2019-02-06T00:38:35.183Z,3.10
2019-02-06T00:41:04.343Z,3.10
2019-02-06T00:43:33.490Z,3.10
2019-02-06T00:46:02.745Z,3.10
2019-02-06T00:48:31.743Z,3.10
2019-02-06T00:51:10.130Z,3.10
2019-02-06T00:53:39.123Z,3.10
2019-02-06T00:56:08.287Z,3.10
2019-02-06T00:58:37.393Z,3.00
2019-02-06T01:01:06.830Z,3.10
2019-02-06T01:03:35.800Z,3.00
2019-02-06T01:06:05.125Z,3.00
2019-02-06T01:08:34.149Z,2.90
2019-02-06T01:11:03.549Z,3.00
2019-02-06T01:13:32.633Z,3.00
2019-02-06T01:16:01.495Z,3.00
2019-02-06T01:18:30.395Z,3.00
2019-02-06T01:20:59.256Z,3.00
2019-02-06T01:23:28.256Z,3.00
2019-02-06T01:25:57.257Z,3.00
2019-02-06T01:28:26.263Z,3.10
2019-02-06T01:31:07.649Z,3.10
2019-02-06T01:33:36.440Z,3.10
2019-02-06T01:36:05.547Z,3.10
2019-02-06T01:38:34.389Z,3.10
2019-02-06T01:41:03.643Z,3.00
2019-02-06T01:43:32.521Z,3.00
2019-02-06T01:46:01.475Z,3.00
2019-02-06T01:48:30.429Z,3.00
2019-02-06T01:50:59.321Z,3.00
2019-02-06T01:53:28.223Z,3.00
2019-02-06T01:55:57.175Z,3.10
2019-02-06T01:58:26.091Z,3.10
2019-02-06T02:00:55.003Z,3.10
2019-02-06T02:03:23.959Z,3.10
2019-02-06T02:06:01.836Z,3.10
2019-02-06T02:08:23.954Z,3.00
2019-02-06T02:10:53.081Z,3.00
2019-02-06T02:13:22.142Z,3.00
2019-02-06T02:15:51.075Z,3.00
2019-02-06T02:18:19.977Z,3.00
2019-02-06T02:20:48.886Z,2.90
2019-02-06T02:23:17.861Z,2.90
2019-02-06T02:25:47.384Z,2.90
2019-02-06T02:28:16.552Z,2.90
2019-02-06T02:30:48.687Z,2.90
2019-02-06T02:33:17.690Z,2.90
2019-02-06T02:35:46.741Z,3.00
2019-02-06T02:38:15.640Z,3.00
2019-02-06T02:40:44.502Z,3.00
2019-02-06T02:43:13.592Z,3.00
2019-02-06T02:45:42.692Z,3.00
2019-02-06T02:48:11.687Z,3.00
2019-02-06T02:50:40.605Z,3.00
2019-02-06T02:53:09.755Z,3.00
2019-02-06T02:55:38.802Z,3.00
2019-02-06T02:58:08.407Z,3.00
2019-02-06T03:01:05.364Z,3.00
2019-02-06T03:03:40.796Z,3.00
2019-02-06T03:06:10.019Z,3.10
2019-02-06T03:08:39.008Z,3.10
2019-02-06T03:11:08.168Z,3.10
2019-02-06T03:13:37.054Z,3.10
2019-02-06T03:16:05.971Z,3.10
2019-02-06T03:18:35.044Z,3.10
2019-02-06T03:21:04.023Z,3.10
2019-02-06T03:23:32.908Z,3.10
2019-02-06T03:26:01.927Z,3.10
2019-02-06T03:28:30.918Z,3.10
2019-02-06T03:30:59.876Z,3.10
2019-02-06T03:33:28.972Z,3.10
2019-02-06T03:35:57.963Z,3.10
2019-02-06T03:38:26.946Z,3.00
2019-02-06T03:40:56.156Z,3.00
2019-02-06T03:43:25.046Z,3.00
2019-02-06T03:45:53.961Z,3.00
2019-02-06T03:48:22.995Z,3.00
2019-02-06T03:50:51.966Z,3.00
2019-02-06T03:53:20.959Z,3.00
2019-02-06T03:55:49.859Z,2.90
2019-02-06T03:58:18.774Z,2.90
2019-02-06T04:00:47.728Z,2.90
2019-02-06T04:03:17.009Z,2.90
2019-02-06T04:05:46.015Z,2.90
2019-02-06T04:08:14.950Z,2.90
2019-02-06T04:10:44.062Z,2.90
2019-02-06T04:13:12.982Z,2.90
2019-02-06T04:15:41.936Z,2.80
2019-02-06T04:18:10.928Z,2.80
2019-02-06T04:20:39.812Z,2.70
2019-02-06T04:23:08.796Z,2.60
2019-02-06T04:25:37.823Z,2.50
2019-02-06T04:28:06.668Z,2.50
2019-02-06T04:30:35.525Z,2.40
2019-02-06T04:33:04.429Z,2.30
2019-02-06T04:35:33.264Z,2.30
2019-02-06T04:38:02.165Z,2.20
2019-02-06T04:40:31.338Z,2.20
2019-02-06T04:43:00.134Z,2.20
2019-02-06T04:45:29.057Z,2.10
2019-02-06T04:47:57.951Z,2.10
2019-02-06T04:50:26.882Z,2.00
2019-02-06T04:52:55.760Z,2.00
2019-02-06T04:55:24.782Z,1.90
2019-02-06T04:57:53.725Z,1.80
2019-02-06T05:00:24.436Z,1.70
2019-02-06T05:02:53.503Z,1.60
2019-02-06T05:05:22.403Z,1.60
2019-02-06T05:07:51.362Z,1.60
2019-02-06T05:10:20.226Z,1.50
2019-02-06T05:12:49.340Z,1.50
2019-02-06T05:15:18.828Z,1.40
2019-02-06T05:17:47.822Z,1.30
2019-02-06T05:20:28.955Z,1.30
2019-02-06T05:22:57.934Z,1.20
2019-02-06T05:25:27.313Z,1.20
2019-02-06T05:27:56.391Z,1.20
2019-02-06T05:30:25.225Z,1.10
2019-02-06T05:32:54.231Z,1.10
2019-02-06T05:35:23.530Z,1.10
2019-02-06T05:37:52.533Z,1.10
2019-02-06T05:40:21.453Z,1.10
2019-02-06T05:42:52.753Z,1.10
2019-02-06T05:45:21.189Z,1.10
2019-02-06T05:47:50.079Z,1.00
2019-02-06T05:50:19.370Z,1.10
2019-02-06T05:52:48.275Z,1.10
2019-02-06T05:55:17.553Z,1.10
2019-02-06T05:57:47.362Z,1.00
2019-02-06T06:00:19.633Z,1.00
2019-02-06T06:02:48.575Z,0.90
2019-02-06T06:05:17.531Z,0.80
2019-02-06T06:07:46.542Z,0.80
2019-02-06T06:10:16.291Z,0.70
2019-02-06T06:12:45.490Z,0.70
2019-02-06T06:15:15.617Z,0.70
2019-02-06T06:17:44.629Z,0.70
2019-02-06T06:20:14.505Z,0.60
2019-02-06T06:22:43.477Z,0.60
2019-02-06T06:25:13.259Z,0.60
2019-02-06T06:27:42.301Z,0.60
2019-02-06T06:30:13.583Z,0.60
2019-02-06T06:32:42.486Z,0.60
2019-02-06T06:35:11.815Z,0.50
2019-02-06T06:37:41.729Z,0.40
2019-02-06T06:40:13.746Z,0.40
2019-02-06T06:42:43.043Z,0.30
2019-02-06T06:45:14.282Z,0.30
2019-02-06T06:47:43.281Z,0.30
2019-02-06T06:50:14.665Z,0.20
2019-02-06T06:52:43.762Z,0.20
2019-02-06T06:55:13.588Z,0.20
2019-02-06T06:57:42.897Z,0.30
2019-02-06T07:00:17.764Z,0.20
2019-02-06T07:02:46.739Z,0.30
2019-02-06T07:05:15.801Z,0.30
2019-02-06T07:07:44.642Z,0.40
2019-02-06T07:10:14.281Z,0.50
2019-02-06T07:12:43.595Z,0.60
2019-02-06T07:15:15.275Z,0.60
2019-02-06T07:17:44.221Z,0.70
2019-02-06T07:20:14.409Z,0.80
2019-02-06T07:22:43.311Z,0.80
2019-02-06T07:25:12.840Z,0.80
2019-02-06T07:27:41.783Z,0.90
2019-02-06T07:30:23.406Z,0.90
2019-02-06T07:32:52.386Z,0.90
2019-02-06T07:35:21.319Z,0.90
2019-02-06T07:37:50.495Z,0.90
2019-02-06T07:40:19.689Z,0.90
2019-02-06T07:42:48.699Z,0.90
2019-02-06T07:45:17.828Z,0.90
2019-02-06T07:47:47.779Z,0.90
2019-02-06T07:50:20.111Z,0.90
2019-02-06T07:52:49.148Z,0.90
2019-02-06T07:55:18.593Z,0.80
2019-02-06T07:57:47.736Z,0.90
2019-02-06T08:00:16.765Z,0.90
2019-02-06T08:02:45.879Z,0.90
2019-02-06T08:05:16.328Z,1.00
2019-02-06T08:07:45.634Z,1.10
2019-02-06T08:10:20.299Z,1.10
2019-02-06T08:12:49.384Z,1.10
2019-02-06T08:15:18.570Z,1.20
2019-02-06T08:17:47.786Z,1.20
2019-02-06T08:20:17.937Z,1.20
2019-02-06T08:22:47.040Z,1.30
2019-02-06T08:25:16.421Z,1.20
2019-02-06T08:27:45.446Z,1.30
2019-02-06T08:30:28.816Z,1.20
2019-02-06T08:32:57.932Z,1.30
2019-02-06T08:35:26.900Z,1.30
2019-02-06T08:37:55.903Z,1.30
2019-02-06T08:40:26.190Z,1.30
2019-02-06T08:42:55.388Z,1.30
2019-02-06T08:45:24.848Z,1.30
2019-02-06T08:47:53.929Z,1.30
2019-02-06T08:50:23.134Z,1.40
2019-02-06T08:52:52.268Z,1.60
2019-02-06T08:55:22.944Z,1.60
2019-02-06T08:57:52.096Z,1.70
2019-02-06T09:00:23.736Z,1.80
2019-02-06T09:02:52.858Z,1.90
2019-02-06T09:05:21.806Z,2.00
2019-02-06T09:07:50.796Z,2.00
2019-02-06T09:10:21.304Z,2.10
2019-02-06T09:12:50.503Z,2.20
2019-02-06T09:15:19.572Z,2.30
2019-02-06T09:17:48.603Z,2.50
2019-02-06T09:20:22.624Z,2.70
2019-02-06T09:22:51.846Z,2.70
2019-02-06T09:25:21.768Z,2.80
2019-02-06T09:27:50.890Z,2.80
2019-02-06T09:30:22.355Z,2.90
2019-02-06T09:32:51.182Z,3.00
2019-02-06T09:35:20.433Z,3.00
2019-02-06T09:37:49.399Z,3.10
2019-02-06T09:40:19.897Z,3.20
2019-02-06T09:42:48.844Z,3.30
2019-02-06T09:45:17.903Z,3.60
2019-02-06T09:47:46.900Z,4.40
2019-02-06T09:50:21.426Z,5.40
2019-02-06T09:52:50.490Z,6.10
2019-02-06T09:55:19.461Z,6.60
2019-02-06T09:57:48.453Z,6.70
2019-02-06T10:00:20.235Z,7.00
2019-02-06T10:02:49.186Z,7.10
2019-02-06T10:05:18.255Z,7.20
2019-02-06T10:07:47.229Z,6.90
2019-02-06T10:10:18.265Z,6.60
2019-02-06T10:12:47.250Z,6.30
2019-02-06T10:15:19.825Z,5.90
2019-02-06T10:17:48.981Z,5.60
2019-02-06T10:20:18.744Z,5.80
2019-02-06T10:22:47.856Z,5.70
2019-02-06T10:25:16.921Z,5.50
2019-02-06T10:27:45.891Z,5.50
2019-02-06T10:30:23.037Z,5.80
2019-02-06T10:32:52.039Z,5.90
2019-02-06T10:35:21.217Z,6.00
2019-02-06T10:37:50.124Z,6.40
2019-02-06T10:40:19.136Z,6.90
2019-02-06T10:42:48.181Z,7.20
2019-02-06T10:45:17.399Z,7.30
2019-02-06T10:47:46.432Z,7.50
2019-02-06T10:50:18.264Z,8.00
2019-02-06T10:52:48.295Z,7.90
2019-02-06T10:55:17.692Z,8.00
2019-02-06T10:57:46.876Z,7.90
2019-02-06T11:00:22.379Z,7.80
2019-02-06T11:02:51.447Z,7.90
2019-02-06T11:05:20.436Z,7.90
2019-02-06T11:07:49.379Z,8.10
2019-02-06T11:10:18.894Z,8.10
2019-02-06T11:12:47.870Z,8.00
2019-02-06T11:15:17.044Z,8.30
2019-02-06T11:17:46.164Z,8.30
2019-02-06T11:20:17.129Z,8.00
2019-02-06T11:22:46.011Z,7.50
2019-02-06T11:25:15.248Z,7.40
2019-02-06T11:27:44.368Z,7.40
2019-02-06T11:30:16.540Z,7.80
2019-02-06T11:32:45.489Z,8.00
2019-02-06T11:35:14.746Z,8.30
2019-02-06T11:37:43.809Z,8.30
2019-02-06T11:40:15.462Z,8.30
2019-02-06T11:42:44.391Z,8.10
2019-02-06T11:45:15.212Z,7.80
2019-02-06T11:47:44.730Z,7.60
2019-02-06T11:50:17.372Z,7.60
2019-02-06T11:52:46.788Z,7.70
2019-02-06T11:55:17.788Z,8.00
2019-02-06T11:57:46.823Z,7.80
2019-02-06T12:00:22.156Z,7.60
2019-02-06T12:02:51.156Z,7.70
2019-02-06T12:05:19.980Z,7.70
2019-02-06T12:07:48.894Z,7.80
2019-02-06T12:10:18.258Z,7.90
2019-02-06T12:12:47.369Z,7.90
2019-02-06T12:15:17.756Z,8.00
2019-02-06T12:17:47.078Z,8.20
2019-02-06T12:20:18.237Z,8.40
2019-02-06T12:22:47.346Z,8.50
2019-02-06T12:25:16.954Z,8.10
2019-02-06T12:27:46.548Z,8.00
2019-02-06T12:30:21.956Z,8.10
2019-02-06T12:32:52.098Z,8.10
2019-02-06T12:35:21.952Z,8.20
2019-02-06T12:37:52.977Z,7.90
2019-02-06T12:40:22.482Z,7.80
2019-02-06T12:42:51.486Z,7.40
2019-02-06T12:45:20.709Z,7.40
2019-02-06T12:47:49.793Z,7.30
2019-02-06T12:50:19.854Z,7.50
2019-02-06T12:52:48.988Z,7.50
2019-02-06T12:55:21.676Z,7.50
2019-02-06T12:57:50.874Z,7.60
2019-02-06T13:00:22.526Z,7.90
2019-02-06T13:02:56.345Z,8.10
2019-02-06T13:05:23.678Z,8.20
2019-02-06T13:07:52.771Z,8.50
2019-02-06T13:10:32.868Z,8.60
2019-02-06T13:12:52.566Z,8.60
2019-02-06T13:15:21.639Z,8.70
2019-02-06T13:17:51.004Z,8.80
2019-02-06T13:20:22.006Z,8.70
2019-02-06T13:22:50.944Z,8.90
2019-02-06T13:25:19.962Z,9.10
2019-02-06T13:27:48.918Z,9.00
2019-02-06T13:30:24.133Z,8.90
2019-02-06T13:32:53.292Z,8.70
2019-02-06T13:35:22.456Z,8.40
2019-02-06T13:37:51.537Z,8.00
2019-02-06T13:40:21.758Z,7.90
2019-02-06T13:42:50.868Z,7.70
2019-02-06T13:45:25.279Z,7.70
2019-02-06T13:47:54.295Z,7.70
2019-02-06T13:50:23.443Z,7.80
2019-02-06T13:52:52.536Z,7.70
2019-02-06T13:55:21.472Z,7.70
2019-02-06T13:57:50.672Z,7.50
2019-02-06T14:00:24.352Z,7.40
2019-02-06T14:02:53.411Z,7.40
2019-02-06T14:05:25.422Z,7.30
2019-02-06T14:07:56.434Z,7.30
2019-02-06T14:10:26.035Z,7.10
2019-02-06T14:12:55.137Z,6.90
2019-02-06T14:15:25.227Z,6.80
2019-02-06T14:17:54.177Z,6.70
2019-02-06T14:20:23.270Z,6.50
2019-02-06T14:22:58.656Z,6.40
2019-02-06T14:25:59.565Z,6.40
2019-02-06T14:29:01.515Z,6.30
2019-02-06T14:32:07.875Z,6.20
2019-02-06T14:34:59.499Z,5.80
2019-02-06T14:37:59.081Z,5.70
2019-02-06T14:40:50.481Z,5.50
2019-02-06T14:43:34.619Z,5.40
2019-02-06T14:46:43.175Z,5.30
2019-02-06T14:49:47.567Z,5.20
2019-02-06T14:52:59.211Z,5.00
2019-02-06T14:56:08.557Z,4.90
2019-02-06T14:59:15.953Z,4.80
2019-02-06T15:02:10.936Z,4.70
2019-02-06T15:05:30.347Z,4.60
2019-02-06T15:08:23.739Z,4.50
2019-02-06T15:11:27.631Z,4.50
2019-02-06T15:14:40.573Z,4.40
2019-02-06T15:17:38.914Z,4.30
2019-02-06T15:20:54.320Z,4.30
2019-02-06T15:24:03.395Z,4.20
2019-02-06T15:27:25.385Z,4.20
2019-02-06T15:30:38.273Z,4.10
2019-02-06T15:33:37.015Z,4.10
2019-02-06T15:36:31.961Z,4.00
2019-02-06T15:39:25.844Z,4.00
2019-02-06T15:42:03.561Z,3.90
2019-02-06T15:44:45.169Z,3.80
2019-02-06T15:47:22.605Z,3.80
2019-02-06T15:50:49.343Z,3.70
2019-02-06T15:53:40.501Z,3.70
2019-02-06T15:56:50.126Z,3.70
2019-02-06T15:59:58.896Z,3.60
2019-02-06T16:03:05.224Z,3.60
2019-02-06T16:06:14.612Z,3.60
2019-02-06T16:08:57.289Z,3.50
2019-02-06T16:11:44.502Z,3.50
2019-02-06T16:14:41.592Z,3.50
2019-02-06T16:17:45.946Z,3.50
2019-02-06T16:20:40.157Z,3.50
2019-02-06T16:24:01.206Z,3.40
2019-02-06T16:27:04.063Z,3.40
2019-02-06T16:30:09.064Z,3.40
2019-02-06T16:33:28.838Z,3.40
2019-02-06T16:36:23.757Z,3.40
2019-02-06T16:39:02.666Z,3.40
2019-02-06T16:42:08.449Z,3.40
2019-02-06T16:45:03.156Z,3.30
2019-02-06T16:48:16.102Z,3.30
2019-02-06T16:50:53.177Z,3.40
2019-02-06T16:54:10.450Z,3.40
2019-02-06T16:57:33.606Z,3.40
2019-02-06T17:00:24.414Z,3.40
2019-02-06T17:03:27.897Z,3.40
2019-02-06T17:06:33.571Z,3.40
2019-02-06T17:09:55.923Z,3.40
2019-02-06T17:13:12.038Z,3.40
2019-02-06T17:15:54.711Z,3.40
2019-02-06T17:19:03.356Z,3.40
2019-02-06T17:22:19.867Z,3.40
2019-02-06T17:25:27.256Z,3.40
2019-02-06T17:28:28.112Z,3.40
2019-02-06T17:31:12.378Z,3.40
2019-02-06T17:34:25.696Z,3.40
2019-02-06T17:37:45.889Z,3.30
2019-02-06T17:40:45.991Z,3.40
2019-02-06T17:44:06.936Z,3.40
2019-02-06T17:47:00.990Z,3.30
2019-02-06T17:49:49.590Z,3.40
2019-02-06T17:52:58.347Z,3.40
2019-02-06T17:55:27.671Z,3.50
2019-02-06T17:58:01.733Z,3.50
2019-02-06T18:00:51.439Z,3.50
2019-02-06T18:03:20.539Z,3.50
2019-02-06T18:05:50.243Z,3.50
2019-02-06T18:08:19.243Z,3.50
2019-02-06T18:10:48.210Z,3.50
2019-02-06T18:13:17.700Z,3.50
2019-02-06T18:15:46.770Z,3.60
2019-02-06T18:18:15.876Z,3.60
2019-02-06T18:20:44.994Z,3.70
2019-02-06T18:23:13.814Z,3.70
2019-02-06T18:25:43.512Z,3.70
2019-02-06T18:28:12.457Z,3.60
2019-02-06T18:30:41.392Z,3.70
2019-02-06T18:33:10.489Z,3.60
2019-02-06T18:35:39.942Z,3.60
2019-02-06T18:38:09.176Z,3.60
2019-02-06T18:40:40.604Z,3.60
2019-02-06T18:43:09.588Z,3.60
2019-02-06T18:45:38.560Z,3.70
2019-02-06T18:48:08.742Z,3.60
2019-02-06T18:50:38.307Z,3.70
2019-02-06T18:53:07.740Z,3.70
2019-02-06T18:55:37.105Z,3.70
2019-02-06T18:58:07.348Z,3.70
2019-02-06T19:00:37.009Z,3.70
2019-02-06T19:03:18.260Z,3.70
2019-02-06T19:05:47.449Z,3.70
2019-02-06T19:08:20.621Z,3.70
2019-02-06T19:10:50.198Z,3.70
2019-02-06T19:13:19.338Z,3.70
2019-02-06T19:15:56.197Z,3.70
2019-02-06T19:18:18.776Z,3.70
2019-02-06T19:20:47.628Z,3.70
2019-02-06T19:23:16.545Z,3.70
2019-02-06T19:25:45.587Z,3.70
2019-02-06T19:28:14.803Z,3.70
2019-02-06T19:30:43.827Z,3.70
2019-02-06T19:33:12.813Z,3.70
2019-02-06T19:35:41.878Z,3.70
2019-02-06T19:38:10.975Z,3.70
2019-02-06T19:40:40.097Z,3.70
2019-02-06T19:43:09.051Z,3.70
2019-02-06T19:45:38.325Z,3.60
2019-02-06T19:48:15.833Z,3.60
2019-02-06T19:50:39.382Z,3.60
2019-02-06T19:53:08.455Z,3.60
2019-02-06T19:55:37.542Z,3.50
2019-02-06T19:58:06.781Z,3.40
2019-02-06T20:00:35.866Z,3.40
2019-02-06T20:03:08.089Z,3.40
2019-02-06T20:05:36.461Z,3.40
2019-02-06T20:08:06.178Z,3.40
2019-02-06T20:10:37.460Z,3.30
2019-02-06T20:13:11.258Z,3.30
2019-02-06T20:15:37.138Z,3.30
2019-02-06T20:18:06.329Z,3.30
2019-02-06T20:20:35.564Z,3.30
2019-02-06T20:23:04.677Z,3.30
2019-02-06T20:25:33.789Z,3.20
2019-02-06T20:28:02.791Z,3.20
2019-02-06T20:30:31.868Z,3.20
2019-02-06T20:33:01.103Z,3.20
2019-02-06T20:35:30.289Z,3.20
2019-02-06T20:37:59.607Z,3.30
2019-02-06T20:40:33.359Z,3.30
2019-02-06T20:43:02.615Z,3.40
2019-02-06T20:45:31.925Z,3.30
2019-02-06T20:48:00.921Z,3.20
2019-02-06T20:50:31.205Z,3.10
2019-02-06T20:53:00.513Z,3.10
2019-02-06T20:55:29.515Z,3.00
2019-02-06T20:57:58.437Z,3.00
2019-02-06T21:00:29.509Z,3.00
2019-02-06T21:02:58.581Z,3.00
2019-02-06T21:05:27.695Z,3.00
2019-02-06T21:07:56.718Z,3.00
2019-02-06T21:10:27.087Z,3.00
2019-02-06T21:12:56.214Z,2.90
2019-02-06T21:15:25.240Z,2.90
2019-02-06T21:17:55.302Z,2.90
2019-02-06T21:20:24.435Z,2.90
2019-02-06T21:22:53.511Z,2.80
2019-02-06T21:25:22.683Z,2.90
2019-02-06T21:27:51.915Z,2.80
2019-02-06T21:30:31.590Z,2.80
2019-02-06T21:33:00.521Z,2.70
2019-02-06T21:35:29.554Z,2.70
2019-02-06T21:37:58.921Z,2.70
2019-02-06T21:40:29.642Z,2.70
2019-02-06T21:42:58.595Z,2.70
2019-02-06T21:45:27.556Z,2.70
2019-02-06T21:47:56.536Z,2.60
2019-02-06T21:50:25.696Z,2.70
2019-02-06T21:52:55.077Z,2.70
2019-02-06T21:55:24.032Z,2.70
2019-02-06T21:57:53.036Z,2.70
2019-02-06T22:00:27.082Z,2.70
2019-02-06T22:02:56.186Z,2.70
2019-02-06T22:05:25.623Z,2.70
2019-02-06T22:07:54.701Z,2.70
2019-02-06T22:10:23.844Z,2.70
2019-02-06T22:12:53.039Z,2.70
2019-02-06T22:15:24.283Z,2.70
2019-02-06T22:17:53.341Z,2.70
2019-02-06T22:20:22.328Z,2.70
2019-02-06T22:22:51.404Z,2.70
2019-02-06T22:25:20.605Z,2.70
2019-02-06T22:27:50.683Z,2.70
2019-02-06T22:30:21.832Z,2.70
2019-02-06T22:32:50.901Z,2.70
2019-02-06T22:35:19.993Z,2.70
2019-02-06T22:37:48.982Z,2.80
2019-02-06T22:40:19.474Z,2.80
2019-02-06T22:42:48.550Z,2.80
2019-02-06T22:45:25.411Z,2.80
2019-02-06T22:47:54.680Z,2.70
2019-02-06T22:50:25.506Z,2.60
2019-02-06T22:52:54.814Z,2.60
2019-02-06T22:55:23.940Z,2.60
2019-02-06T22:57:52.815Z,2.70
2019-02-06T23:00:47.211Z,2.60
2019-02-06T23:03:19.491Z,2.70
2019-02-06T23:05:48.454Z,2.80
2019-02-06T23:08:17.486Z,2.80
2019-02-06T23:10:46.348Z,2.80
2019-02-06T23:13:15.586Z,2.80
2019-02-06T23:15:44.547Z,2.90
2019-02-06T23:18:13.636Z,2.90
2019-02-06T23:20:42.696Z,2.90
2019-02-06T23:23:11.692Z,2.90
2019-02-06T23:25:43.022Z,2.90
2019-02-06T23:28:11.309Z,2.90
2019-02-06T23:30:40.297Z,2.90
2019-02-06T23:33:09.367Z,2.90
2019-02-06T23:35:38.361Z,2.90
2019-02-06T23:38:07.277Z,2.90
2019-02-06T23:40:36.173Z,2.90
2019-02-06T23:43:05.549Z,2.90
2019-02-06T23:45:34.533Z,2.90
2019-02-06T23:48:03.405Z,2.80
2019-02-06T23:50:32.255Z,2.70
2019-02-06T23:53:01.107Z,2.60
2019-02-06T23:55:30.003Z,2.60
2019-02-06T23:57:59.269Z,2.50
